Weather at Surigao Airport

Public forecast

Using degrees Celsius for public forecast. Weather courtesy of forecast.io.

Closest aviation weather report (METAR) to Surigao Airport

Closest report is Mactan Cebu International Airport, 94.8 nm (175.5 km) WNW.

2022/11/26 09:00 (retrieved 43 minutes ago)

RPVM 260900Z 04003KT 9999 FEW020 SCT100 30/23 Q1010 NOSIG RMK A2983

Closest aviation forecast (TAF) to Surigao Airport

Closest forecast is Mactan Cebu International Airport, 94.8 nm (175.5 km) WNW.

2022/11/26 06:00 (retrieved 4 hours ago)

TAF RPVM 260500Z 2606/2712 04007KT 9999 FEW020 SCT300 2615/2621 04012KT FEW018CB SCT100